PROFILE

 METAR AND TAF INFORMATION
ADDS - METARS form results

(0711 UTC 25 January 2022)
http://aviationweather.gov/metar/data/
 
SEQM 250701Z 02004KT 9999 SCT005 BKN030 14/13 Q1024 NOSIG RMK A3026
SEQM 250700Z 02004KT 9999 SCT005 BKN030 14/13 Q1024 NOSIG RMK A3024
SEQM 250440Z 2506/2606 33005KT 9999 OVC005 BECMG 2512/2514 VRB03KT SCT020 BKN080 BECMG 2516/2518 35012KT BKN030 PROB4O TEMPO 2519/2522 TS FEW023CB BKN030 BECMG 2600/2602 03007KT SCT023 SCT100 TX24/2519Z TN12/2511Z 

 AIRPORT MAP

 RUNWAY INFORMATION
Runway 18 Runway length 13445 ft Runway width 148 ft
Runway elevation 7776 ft Runway displaced threshold 0 ft Runway heading 180
Runway 36 Runway length 13445 ft Runway width 148 ft
Runway elevation 7910 ft Runway displaced threshold 0 ft Runway heading 360

 AIRPORT FREQUENCIES
Type APPR Name Quito Appr Frequency 119.7 MHZ
Type APPR2 Name Quito Appr Frequency 121.2 MHZ
Type ATIS Name ATIS Frequency 115.3 MHZ
Type GRD Name Quito Grou Frequency 121.9 MHZ
Type TWR Name Quito Towe Frequency 118.1 MHZ

 AIRPORT NEAR NAVIGATION AIDS